Time;durP1;ratioP1;P1;durP2;ratioP2;P2;SDS_P1;SDS_P2;PMS_P1;PMS_P2;Temp;Humidity;BMP_temperature;BMP_pressure;BME280_temperature;BME280_humidity;BME280_pressure;Samples;Min_cycle;Max_cycle;Signal;HPM_P1;HPM_P2
2023/04/15 00:00:29;;;;;;;7.07;4.68;;;8.40;99.90;;;;;;5019407;28;20049;-59
2023/04/15 00:02:55;;;;;;;10.80;4.95;;;8.40;99.90;;;;;;5038018;28;20045;-61
2023/04/15 00:05:21;;;;;;;8.68;4.70;;;8.30;99.90;;;;;;5038409;28;20060;-60
2023/04/15 00:07:47;;;;;;;8.75;5.00;;;8.30;99.90;;;;;;5020112;28;20545;-59
2023/04/15 00:10:16;;;;;;;8.73;4.80;;;8.20;99.90;;;;;;5030201;28;20033;-60
2023/04/15 00:12:41;;;;;;;8.85;5.15;;;8.20;99.90;;;;;;5017518;28;20053;-59
2023/04/15 00:15:08;;;;;;;7.18;5.03;;;8.20;99.90;;;;;;5036126;28;20932;-59
2023/04/15 00:17:34;;;;;;;11.38;5.15;;;8.10;99.90;;;;;;5019274;28;20536;-59
2023/04/15 00:20:00;;;;;;;10.05;5.28;;;8.10;99.90;;;;;;5016037;28;20054;-60
2023/04/15 00:22:26;;;;;;;10.25;5.60;;;8.10;99.90;;;;;;5034634;28;20064;-59
2023/04/15 00:24:53;;;;;;;9.68;4.78;;;8.00;99.90;;;;;;5015995;28;20052;-61
2023/04/15 00:27:19;;;;;;;10.05;5.45;;;8.00;99.90;;;;;;5023926;28;20074;-60
2023/04/15 00:29:44;;;;;;;11.93;4.82;;;8.00;99.90;;;;;;5020140;28;20245;-59
2023/04/15 00:32:10;;;;;;;10.65;4.47;;;7.90;99.90;;;;;;5022253;28;20042;-59
2023/04/15 00:34:36;;;;;;;10.98;4.97;;;7.90;99.90;;;;;;5033606;28;20033;-60
2023/04/15 00:37:02;;;;;;;10.48;5.05;;;7.90;99.90;;;;;;5020182;28;20041;-60
2023/04/15 00:39:27;;;;;;;8.18;4.63;;;7.80;99.90;;;;;;5020027;28;20095;-60
2023/04/15 00:41:54;;;;;;;11.82;5.20;;;7.80;99.90;;;;;;4996340;28;20046;-59
2023/04/15 00:44:20;;;;;;;9.02;4.68;;;7.80;99.90;;;;;;5037159;28;20045;-60
2023/04/15 00:46:48;;;;;;;7.82;4.85;;;7.70;99.90;;;;;;5037625;28;20080;-60
2023/04/15 00:49:13;;;;;;;12.30;5.55;;;7.70;99.90;;;;;;5037648;28;20281;-60
2023/04/15 00:51:39;;;;;;;12.10;5.43;;;7.70;99.90;;;;;;5014409;28;20575;-62
2023/04/15 00:54:06;;;;;;;7.88;5.20;;;7.60;99.90;;;;;;5036874;28;20049;-60
2023/04/15 00:56:38;;;;;;;9.25;4.80;;;7.60;99.90;;;;;;5011506;28;20926;-60
2023/04/15 00:59:05;;;;;;;10.32;5.30;;;7.60;99.90;;;;;;5036744;28;20057;-60
2023/04/15 01:01:34;;;;;;;7.43;5.03;;;7.60;99.90;;;;;;5031257;28;20054;-60
2023/04/15 01:04:00;;;;;;;11.35;5.22;;;7.50;99.90;;;;;;5034199;28;20520;-60
2023/04/15 01:06:27;;;;;;;9.93;5.00;;;7.50;99.90;;;;;;5037616;28;20093;-60
2023/04/15 01:08:56;;;;;;;13.68;5.65;;;7.50;99.90;;;;;;5034929;28;20047;-59
2023/04/15 01:11:23;;;;;;;11.13;5.53;;;7.50;99.90;;;;;;5035122;28;20778;-60
2023/04/15 01:13:50;;;;;;;9.10;5.20;;;7.40;99.90;;;;;;5018116;28;20068;-60
2023/04/15 01:16:16;;;;;;;15.10;6.03;;;7.40;99.90;;;;;;5013612;28;20055;-63
2023/04/15 01:18:42;;;;;;;10.38;5.68;;;7.40;99.90;;;;;;5037519;28;20071;-60
2023/04/15 01:21:09;;;;;;;8.55;5.05;;;7.30;99.90;;;;;;5034226;28;20097;-60
2023/04/15 01:23:39;;;;;;;12.90;5.22;;;7.30;99.90;;;;;;5019643;28;20049;-61
2023/04/15 01:26:07;;;;;;;9.43;5.50;;;7.30;99.90;;;;;;5017105;28;20253;-59
2023/04/15 01:28:33;;;;;;;10.80;5.22;;;7.20;99.90;;;;;;5037025;28;20490;-59
2023/04/15 01:31:07;;;;;;;14.25;5.88;;;7.20;99.90;;;;;;5030560;28;20049;-59
2023/04/15 01:33:33;;;;;;;13.02;5.75;;;7.20;99.90;;;;;;5036571;28;20076;-59
2023/04/15 01:35:58;;;;;;;11.55;5.97;;;7.10;99.90;;;;;;5037135;28;20042;-59
2023/04/15 01:38:26;;;;;;;9.98;5.45;;;7.10;99.90;;;;;;5031071;28;20119;-60
2023/04/15 01:40:52;;;;;;;9.25;5.63;;;7.10;99.90;;;;;;5018243;28;20168;-61
2023/04/15 01:43:18;;;;;;;10.40;5.93;;;7.10;99.90;;;;;;5037160;28;20045;-60
2023/04/15 01:45:45;;;;;;;11.02;5.75;;;7.00;99.90;;;;;;5019234;28;20046;-60
2023/04/15 01:48:11;;;;;;;10.35;5.53;;;7.00;99.90;;;;;;5011300;28;20060;-59
2023/04/15 01:50:37;;;;;;;8.77;5.57;;;6.90;99.90;;;;;;5019052;28;20136;-60
2023/04/15 01:53:03;;;;;;;10.52;5.72;;;6.90;99.90;;;;;;5001679;28;20046;-61
2023/04/15 01:55:29;;;;;;;8.63;5.90;;;6.90;99.90;;;;;;5018462;28;20073;-59
2023/04/15 01:57:56;;;;;;;9.40;5.47;;;6.80;99.90;;;;;;4992019;28;20063;-58
2023/04/15 02:00:22;;;;;;;10.85;6.03;;;6.80;99.90;;;;;;4996591;28;20422;-57
2023/04/15 02:02:48;;;;;;;10.27;5.78;;;6.70;99.90;;;;;;4997583;28;20442;-60
2023/04/15 02:05:15;;;;;;;12.77;6.35;;;6.70;99.90;;;;;;4991869;28;20038;-60
2023/04/15 02:07:42;;;;;;;8.45;6.22;;;6.70;99.90;;;;;;4994000;28;20073;-61
2023/04/15 02:10:09;;;;;;;9.90;5.88;;;6.70;99.90;;;;;;4996506;28;20242;-59
2023/04/15 02:12:35;;;;;;;9.63;5.93;;;6.60;99.90;;;;;;4997375;28;20136;-60
2023/04/15 02:15:01;;;;;;;13.00;6.35;;;6.60;99.90;;;;;;4984072;28;20069;-59
2023/04/15 02:17:26;;;;;;;10.40;6.03;;;6.60;99.90;;;;;;4993466;28;20062;-60
2023/04/15 02:19:55;;;;;;;8.88;6.07;;;6.50;99.90;;;;;;4994197;28;20053;-60
2023/04/15 02:22:21;;;;;;;13.82;6.50;;;6.50;99.90;;;;;;4980154;28;20129;-60
2023/04/15 02:24:47;;;;;;;8.98;6.13;;;6.50;99.90;;;;;;4991413;28;20046;-60
2023/04/15 02:27:17;;;;;;;13.57;6.63;;;6.50;99.90;;;;;;4994720;28;20061;-60
2023/04/15 02:29:44;;;;;;;12.88;6.22;;;6.50;99.90;;;;;;4996862;28;20038;-60
2023/04/15 02:32:11;;;;;;;10.95;6.40;;;6.40;99.90;;;;;;4993511;28;20045;-61
2023/04/15 02:34:40;;;;;;;14.40;5.97;;;6.40;99.90;;;;;;4995238;28;20792;-60
2023/04/15 02:37:06;;;;;;;11.88;6.20;;;7.00;99.90;;;;;;4990213;28;20156;-60
2023/04/15 02:39:32;;;;;;;12.55;6.90;;;6.30;99.90;;;;;;4991367;28;20719;-59
2023/04/15 02:41:59;;;;;;;9.75;5.65;;;6.30;99.90;;;;;;4986949;28;20046;-58
2023/04/15 02:44:26;;;;;;;11.07;6.82;;;6.20;99.90;;;;;;4991616;28;20042;-60
2023/04/15 02:46:53;;;;;;;10.80;6.55;;;6.20;99.90;;;;;;4988943;28;20051;-60
2023/04/15 02:49:22;;;;;;;9.65;5.65;;;6.20;99.90;;;;;;4995860;28;20061;-60
2023/04/15 02:51:48;;;;;;;11.68;6.28;;;6.10;99.90;;;;;;4992733;28;20050;-60
2023/04/15 02:54:18;;;;;;;12.50;6.35;;;6.10;99.90;;;;;;4991474;28;20047;-61
2023/04/15 02:56:44;;;;;;;12.07;6.45;;;5.40;99.90;;;;;;5002789;28;20099;-59
2023/04/15 02:59:11;;;;;;;12.45;6.30;;;6.00;99.90;;;;;;5004585;28;20361;-59
2023/04/15 03:01:37;;;;;;;12.32;6.72;;;7.00;99.90;;;;;;5010115;28;20046;-60
2023/04/15 03:04:03;;;;;;;11.05;6.25;;;5.90;99.90;;;;;;5017328;28;20068;-59
2023/04/15 03:06:28;;;;;;;9.35;6.55;;;5.90;99.90;;;;;;5032270;28;20635;-60
2023/04/15 03:08:55;;;;;;;11.57;6.63;;;5.90;99.90;;;;;;5000409;28;20044;-60
2023/04/15 03:11:21;;;;;;;13.30;6.93;;;5.90;99.90;;;;;;5026678;28;20580;-60
2023/04/15 03:13:47;;;;;;;13.50;6.45;;;5.80;99.90;;;;;;5031652;28;20093;-60
2023/04/15 03:16:13;;;;;;;11.07;6.32;;;5.80;99.90;;;;;;5005913;28;20045;-60
2023/04/15 03:18:38;;;;;;;9.05;6.72;;;5.80;99.90;;;;;;5032790;28;20053;-60
2023/04/15 03:21:05;;;;;;;9.20;6.47;;;5.70;99.90;;;;;;5037935;28;20072;-59
2023/04/15 03:23:31;;;;;;;12.93;6.93;;;5.70;99.90;;;;;;5018171;28;20072;-61
2023/04/15 03:25:57;;;;;;;13.02;7.32;;;5.70;99.90;;;;;;5019621;28;20045;-60
2023/04/15 03:28:23;;;;;;;14.43;7.05;;;5.70;99.90;;;;;;5038853;28;20072;-59
2023/04/15 03:30:49;;;;;;;13.10;7.63;;;5.60;99.90;;;;;;5037406;28;20040;-60
2023/04/15 03:33:15;;;;;;;11.40;6.95;;;5.60;99.90;;;;;;5013494;28;20046;-60
2023/04/15 03:35:40;;;;;;;12.60;7.32;;;5.60;99.90;;;;;;5038706;28;20121;-60
2023/04/15 03:38:06;;;;;;;16.27;7.57;;;5.60;99.90;;;;;;5021179;28;20042;-59
2023/04/15 03:40:32;;;;;;;13.23;6.88;;;5.60;99.90;;;;;;5014736;28;20107;-60
2023/04/15 03:42:57;;;;;;;15.20;7.50;;;5.60;99.90;;;;;;5034405;28;20049;-60
2023/04/15 03:45:24;;;;;;;13.60;7.25;;;5.50;99.90;;;;;;5039138;28;20049;-61
2023/04/15 03:47:50;;;;;;;13.95;7.85;;;5.50;99.90;;;;;;5020485;28;20050;-60
2023/04/15 03:50:16;;;;;;;12.63;7.35;;;5.50;99.90;;;;;;5036154;28;20042;-59
2023/04/15 03:52:41;;;;;;;15.48;8.10;;;5.40;99.90;;;;;;5036661;28;20046;-60
2023/04/15 03:55:08;;;;;;;11.55;7.45;;;5.40;99.90;;;;;;5021628;28;20379;-61
2023/04/15 03:57:37;;;;;;;16.40;7.72;;;5.40;99.90;;;;;;5037744;28;20057;-60
2023/04/15 04:00:08;;;;;;;13.57;8.13;;;5.30;99.90;;;;;;5036033;28;20133;-60
2023/04/15 04:02:34;;;;;;;15.05;7.75;;;5.30;99.90;;;;;;5036332;28;20116;-60
2023/04/15 04:05:00;;;;;;;11.13;7.40;;;5.30;99.90;;;;;;5038865;28;20089;-60
2023/04/15 04:07:25;;;;;;;13.07;7.70;;;5.30;99.90;;;;;;5036300;28;20091;-59
2023/04/15 04:09:51;;;;;;;13.23;8.27;;;5.30;99.90;;;;;;5037791;28;20136;-60
2023/04/15 04:12:17;;;;;;;18.38;8.65;;;5.20;99.90;;;;;;5019499;28;20505;-60
2023/04/15 04:14:43;;;;;;;14.75;8.65;;;5.20;99.90;;;;;;5034921;28;20072;-61
2023/04/15 04:17:08;;;;;;;13.98;8.68;;;4.30;99.90;;;;;;5037089;28;20045;-59
2023/04/15 04:19:34;;;;;;;16.23;9.80;;;5.20;99.90;;;;;;5032359;28;20052;-60
2023/04/15 04:22:01;;;;;;;17.10;9.80;;;5.10;99.90;;;;;;5032848;28;20129;-59
2023/04/15 04:24:26;;;;;;;13.68;8.98;;;5.10;99.90;;;;;;5032661;28;20039;-60
2023/04/15 04:26:52;;;;;;;16.13;9.63;;;5.10;99.90;;;;;;5035940;28;20520;-59
2023/04/15 04:29:18;;;;;;;16.95;9.77;;;5.10;99.90;;;;;;5034835;28;20045;-59
2023/04/15 04:31:43;;;;;;;16.45;9.23;;;5.00;99.90;;;;;;5036093;28;20042;-60
2023/04/15 04:34:09;;;;;;;12.85;9.20;;;5.00;99.90;;;;;;5038778;28;20493;-60
2023/04/15 04:36:35;;;;;;;15.68;9.48;;;5.00;99.90;;;;;;5022270;28;20041;-60
2023/04/15 04:39:01;;;;;;;16.13;10.63;;;5.00;99.90;;;;;;5034195;28;20052;-60
2023/04/15 04:41:27;;;;;;;14.48;9.23;;;4.90;99.90;;;;;;5036590;28;20055;-60
2023/04/15 04:43:52;;;;;;;13.10;9.35;;;4.80;99.90;;;;;;5036665;28;20137;-60
2023/04/15 04:46:18;;;;;;;17.00;9.55;;;4.90;99.90;;;;;;5038539;28;20073;-60
2023/04/15 04:48:44;;;;;;;15.23;9.73;;;4.90;99.90;;;;;;5020593;28;20110;-60
2023/04/15 04:51:10;;;;;;;16.58;9.55;;;4.90;99.90;;;;;;5003159;28;20049;-60
2023/04/15 04:53:36;;;;;;;15.57;9.27;;;4.80;99.90;;;;;;5003199;28;20030;-60
2023/04/15 04:56:02;;;;;;;16.25;9.50;;;4.80;99.90;;;;;;5002156;28;20041;-61
2023/04/15 04:58:28;;;;;;;18.00;10.23;;;4.80;99.90;;;;;;5002114;28;20567;-59
2023/04/15 05:00:54;;;;;;;17.02;9.73;;;4.80;99.90;;;;;;5036525;28;20072;-60
2023/04/15 05:03:21;;;;;;;18.10;9.90;;;4.80;99.90;;;;;;5032398;28;20056;-61
2023/04/15 05:05:48;;;;;;;16.38;9.55;;;4.80;99.90;;;;;;5034043;28;20042;-60
2023/04/15 05:08:14;;;;;;;18.00;10.02;;;4.80;99.90;;;;;;5032713;28;20053;-62
2023/04/15 05:10:40;;;;;;;15.50;10.10;;;4.80;99.90;;;;;;5036210;28;20048;-60
2023/04/15 05:13:05;;;;;;;15.23;10.52;;;4.80;99.90;;;;;;5016933;28;20045;-60
2023/04/15 05:15:32;;;;;;;18.73;10.50;;;4.70;99.90;;;;;;5016937;28;20063;-60
2023/04/15 05:17:57;;;;;;;16.95;10.43;;;4.80;99.90;;;;;;5018862;28;20491;-61
2023/04/15 05:20:23;;;;;;;15.38;10.25;;;4.70;99.90;;;;;;5015635;28;20061;-60
2023/04/15 05:22:49;;;;;;;16.25;10.45;;;4.80;99.90;;;;;;5018398;28;20128;-62
2023/04/15 05:25:15;;;;;;;16.02;10.50;;;4.80;99.90;;;;;;5000859;28;20045;-60
2023/04/15 05:27:41;;;;;;;17.65;10.13;;;4.80;99.90;;;;;;5036504;28;20037;-62
2023/04/15 05:30:07;;;;;;;15.25;10.60;;;4.80;99.90;;;;;;5034187;28;20056;-59
2023/04/15 05:32:33;;;;;;;15.60;10.00;;;4.90;99.90;;;;;;5035166;28;20045;-61
2023/04/15 05:34:59;;;;;;;18.27;10.45;;;4.90;99.90;;;;;;5019420;28;20042;-59
2023/04/15 05:37:25;;;;;;;17.25;10.68;;;5.30;99.90;;;;;;5016798;28;20501;-58
2023/04/15 05:39:51;;;;;;;17.27;10.05;;;5.00;99.90;;;;;;5033279;28;20034;-60
2023/04/15 05:42:17;;;;;;;15.43;10.15;;;5.10;99.90;;;;;;5027326;28;20042;-60
2023/04/15 05:44:42;;;;;;;19.73;11.48;;;5.10;99.90;;;;;;5036193;28;20120;-60
2023/04/15 05:47:09;;;;;;;18.30;11.75;;;5.20;99.90;;;;;;5036362;28;20477;-60
2023/04/15 05:49:35;;;;;;;18.23;11.23;;;5.20;99.90;;;;;;5035025;28;20690;-61
2023/04/15 05:52:01;;;;;;;15.88;10.55;;;5.30;99.90;;;;;;5036249;28;20042;-61
2023/04/15 05:54:27;;;;;;;17.73;11.20;;;5.40;99.90;;;;;;5012693;28;20110;-59
2023/04/15 05:56:53;;;;;;;21.90;11.57;;;5.40;99.90;;;;;;5015818;28;20104;-60
2023/04/15 05:59:19;;;;;;;16.58;11.30;;;5.40;99.90;;;;;;5016698;28;20831;-60
2023/04/15 06:01:45;;;;;;;16.83;11.52;;;5.50;99.90;;;;;;5033127;28;20109;-61
2023/04/15 06:04:10;;;;;;;17.40;11.40;;;5.60;99.90;;;;;;5027192;28;20105;-60
2023/04/15 06:06:37;;;;;;;17.17;11.50;;;5.60;99.90;;;;;;5033916;28;20030;-60
2023/04/15 06:09:03;;;;;;;18.98;11.05;;;5.60;99.90;;;;;;5033093;28;20045;-60
2023/04/15 06:11:29;;;;;;;19.20;11.70;;;5.60;99.90;;;;;;4999843;28;20086;-60
2023/04/15 06:13:55;;;;;;;18.25;11.10;;;5.70;99.90;;;;;;5032333;28;20062;-60
2023/04/15 06:16:22;;;;;;;16.90;11.68;;;5.70;99.90;;;;;;5034244;28;20075;-60
2023/04/15 06:18:47;;;;;;;18.38;11.43;;;5.70;99.90;;;;;;5017187;28;20052;-61
2023/04/15 06:21:14;;;;;;;16.90;10.93;;;5.70;99.90;;;;;;5013668;28;20050;-61
2023/04/15 06:23:40;;;;;;;17.70;11.60;;;5.70;99.90;;;;;;5030100;28;20092;-58
2023/04/15 06:26:06;;;;;;;17.05;11.18;;;5.70;99.90;;;;;;5035445;28;20041;-60
2023/04/15 06:28:32;;;;;;;18.30;11.30;;;5.70;99.90;;;;;;5031096;28;20046;-60
2023/04/15 06:30:58;;;;;;;19.38;11.57;;;5.80;99.90;;;;;;5032562;28;20045;-60
2023/04/15 06:33:23;;;;;;;16.88;10.93;;;6.00;99.90;;;;;;5037241;28;20159;-61
2023/04/15 06:35:49;;;;;;;15.43;10.80;;;5.80;99.90;;;;;;5036014;28;20457;-60
2023/04/15 06:38:15;;;;;;;17.10;10.70;;;5.80;99.90;;;;;;5034740;28;20105;-60
2023/04/15 06:40:41;;;;;;;17.95;11.35;;;5.80;99.90;;;;;;5014730;28;20041;-62
2023/04/15 06:43:08;;;;;;;14.85;10.57;;;5.90;99.90;;;;;;5034767;28;20037;-60
2023/04/15 06:45:34;;;;;;;17.00;10.98;;;5.90;99.90;;;;;;5036915;28;20046;-60
2023/04/15 06:48:00;;;;;;;17.25;11.05;;;6.10;99.90;;;;;;5027417;28;20045;-60
2023/04/15 06:50:26;;;;;;;18.42;12.10;;;6.10;99.90;;;;;;5034556;28;20038;-59
2023/04/15 06:52:53;;;;;;;18.05;11.60;;;6.20;99.90;;;;;;5001544;28;20149;-58
2023/04/15 06:55:19;;;;;;;17.23;10.80;;;6.30;99.90;;;;;;5023461;28;20125;-58
2023/04/15 06:57:44;;;;;;;18.77;11.82;;;6.50;99.90;;;;;;5036869;28;20085;-58
2023/04/15 07:00:11;;;;;;;17.60;11.20;;;6.60;99.90;;;;;;5019113;28;20051;-59
2023/04/15 07:02:37;;;;;;;18.00;11.15;;;6.70;99.90;;;;;;5038681;28;20061;-62
2023/04/15 07:05:03;;;;;;;15.48;10.57;;;6.80;99.90;;;;;;5016746;28;21365;-59
2023/04/15 07:07:29;;;;;;;17.27;10.77;;;6.90;99.90;;;;;;5033461;28;20038;-59
2023/04/15 07:09:55;;;;;;;15.43;10.95;;;7.00;99.90;;;;;;5041013;28;20044;-59
2023/04/15 07:12:20;;;;;;;16.33;10.68;;;7.10;99.90;;;;;;5021692;28;20828;-59
2023/04/15 07:14:46;;;;;;;16.45;10.43;;;7.20;99.90;;;;;;5038355;28;20047;-59
2023/04/15 07:17:12;;;;;;;14.63;10.07;;;7.30;99.90;;;;;;5038764;28;20159;-59
2023/04/15 07:19:38;;;;;;;15.02;10.27;;;7.40;99.90;;;;;;5039630;28;20045;-59
2023/04/15 07:22:03;;;;;;;16.13;10.07;;;7.60;99.90;;;;;;5035256;28;20048;-60
2023/04/15 07:24:29;;;;;;;15.60;10.40;;;7.70;99.90;;;;;;5037778;28;20041;-60
2023/04/15 07:26:57;;;;;;;15.38;9.85;;;7.90;99.90;;;;;;5035696;28;20129;-59
2023/04/15 07:29:23;;;;;;;15.45;10.02;;;8.10;99.90;;;;;;5036755;28;20081;-60
2023/04/15 07:31:48;;;;;;;11.70;8.60;;;8.30;99.90;;;;;;5039339;28;20669;-60
2023/04/15 07:34:15;;;;;;;13.50;8.98;;;8.50;99.90;;;;;;5019602;28;20046;-57
2023/04/15 07:36:41;;;;;;;13.88;9.32;;;8.70;99.90;;;;;;5014791;28;20055;-59
2023/04/15 07:39:07;;;;;;;10.88;8.60;;;8.90;99.90;;;;;;5024930;28;20053;-59
2023/04/15 07:41:33;;;;;;;12.60;8.65;;;9.00;99.90;;;;;;5039318;28;20049;-59
2023/04/15 07:43:58;;;;;;;11.40;8.45;;;9.20;99.90;;;;;;5036972;28;20041;-58
2023/04/15 07:46:26;;;;;;;12.80;8.40;;;9.30;99.90;;;;;;5038248;28;20052;-60
2023/04/15 07:48:52;;;;;;;13.73;8.68;;;9.40;99.90;;;;;;5034017;28;20042;-60
2023/04/15 07:51:20;;;;;;;11.88;8.55;;;9.60;99.90;;;;;;5031788;28;20049;-59
2023/04/15 07:53:47;;;;;;;11.57;8.45;;;9.60;99.90;;;;;;5034506;28;20097;-60
2023/04/15 07:56:13;;;;;;;12.05;8.25;;;9.80;99.90;;;;;;5014740;28;20030;-60
2023/04/15 07:58:39;;;;;;;10.48;7.32;;;9.80;99.90;;;;;;5036364;28;20077;-60
2023/04/15 08:01:04;;;;;;;13.13;7.28;;;9.90;99.90;;;;;;5034985;28;20042;-60
2023/04/15 08:03:30;;;;;;;10.45;7.40;;;9.90;99.90;;;;;;5037356;28;20049;-60
2023/04/15 08:05:56;;;;;;;9.77;7.40;;;10.00;99.90;;;;;;5036921;28;20041;-60
2023/04/15 08:08:22;;;;;;;9.93;6.90;;;10.00;99.90;;;;;;5017432;28;20060;-61
2023/04/15 08:10:49;;;;;;;16.70;7.30;;;10.00;99.90;;;;;;5038760;28;20037;-60
2023/04/15 08:13:15;;;;;;;14.35;7.35;;;10.10;99.90;;;;;;5037203;28;20048;-60
2023/04/15 08:15:41;;;;;;;10.25;6.93;;;10.10;99.90;;;;;;5020089;28;20064;-59
2023/04/15 08:18:06;;;;;;;8.73;6.63;;;10.10;99.90;;;;;;5038005;28;20057;-59
2023/04/15 08:20:32;;;;;;;10.15;6.55;;;10.10;99.90;;;;;;5037658;28;20037;-59
2023/04/15 08:22:58;;;;;;;9.60;6.60;;;10.10;99.90;;;;;;5002653;28;20046;-59
2023/04/15 08:25:24;;;;;;;10.13;6.40;;;10.20;99.90;;;;;;5037850;28;20045;-59
2023/04/15 08:27:50;;;;;;;8.75;5.50;;;10.30;99.90;;;;;;5038215;28;20557;-61
2023/04/15 08:30:16;;;;;;;7.85;5.28;;;10.30;99.90;;;;;;5035738;28;20100;-60
2023/04/15 08:32:45;;;;;;;8.43;5.22;;;10.40;99.90;;;;;;5037984;28;20041;-60
2023/04/15 08:35:10;;;;;;;8.10;5.97;;;10.50;99.90;;;;;;5036951;28;20072;-59
2023/04/15 08:37:36;;;;;;;8.27;5.47;;;10.60;99.90;;;;;;5038028;28;20045;-61
2023/04/15 08:40:02;;;;;;;7.18;5.85;;;10.70;99.90;;;;;;5015409;28;20056;-57
2023/04/15 08:42:35;;;;;;;9.13;5.63;;;10.80;99.90;;;;;;5034170;28;20045;-59
2023/04/15 08:45:03;;;;;;;8.90;6.00;;;10.90;99.90;;;;;;5038513;28;20049;-59
2023/04/15 08:47:33;;;;;;;8.57;5.60;;;11.00;99.90;;;;;;5019135;28;20485;-59
2023/04/15 08:50:00;;;;;;;8.88;4.80;;;11.10;99.90;;;;;;5036236;28;20081;-58
2023/04/15 08:52:26;;;;;;;6.22;4.68;;;11.10;99.90;;;;;;5035400;28;20069;-61
2023/04/15 08:54:57;;;;;;;8.38;4.45;;;11.10;99.90;;;;;;5036329;28;20045;-59
2023/04/15 08:57:26;;;;;;;8.15;4.60;;;11.00;99.90;;;;;;5031437;28;20065;-59
2023/04/15 08:59:54;;;;;;;6.65;4.90;;;11.00;99.90;;;;;;5032898;28;20081;-59
2023/04/15 09:02:22;;;;;;;6.28;4.80;;;11.00;99.90;;;;;;5037437;28;20042;-59
2023/04/15 09:04:47;;;;;;;6.47;4.75;;;11.10;99.90;;;;;;5002428;28;20041;-59
2023/04/15 09:07:13;;;;;;;6.60;4.32;;;11.10;99.90;;;;;;5018645;28;20038;-59
2023/04/15 09:09:40;;;;;;;6.13;4.15;;;11.10;99.90;;;;;;5037293;28;20041;-59
2023/04/15 09:12:07;;;;;;;5.72;3.75;;;11.10;99.90;;;;;;5036958;28;20128;-61
2023/04/15 09:14:33;;;;;;;6.63;3.80;;;11.10;99.90;;;;;;5016415;28;20213;-59
2023/04/15 09:17:01;;;;;;;6.25;3.92;;;11.10;99.90;;;;;;5036027;28;20045;-59
2023/04/15 09:19:27;;;;;;;7.25;4.00;;;11.20;99.90;;;;;;5036197;28;20103;-59
2023/04/15 09:21:57;;;;;;;4.88;3.75;;;11.20;99.90;;;;;;5036148;28;20060;-59
2023/04/15 09:24:24;;;;;;;5.53;4.18;;;11.20;99.90;;;;;;5016497;28;20505;-58
2023/04/15 09:26:54;;;;;;;6.03;3.72;;;11.30;99.90;;;;;;5036322;28;20041;-59
2023/04/15 09:29:23;;;;;;;6.50;4.38;;;11.30;99.90;;;;;;5012097;28;20055;-59
2023/04/15 09:31:49;;;;;;;7.35;4.63;;;11.40;99.90;;;;;;5037302;28;20401;-59
2023/04/15 09:34:15;;;;;;;8.18;4.53;;;11.50;99.90;;;;;;5034005;28;20065;-59
2023/04/15 09:36:47;;;;;;;7.97;4.72;;;11.50;99.90;;;;;;5036242;28;20052;-60
2023/04/15 09:39:13;;;;;;;6.45;4.30;;;11.50;99.90;;;;;;5035762;28;20045;-59
2023/04/15 09:41:39;;;;;;;5.95;3.70;;;11.40;99.90;;;;;;5037058;28;20038;-60
2023/04/15 09:44:06;;;;;;;5.32;3.90;;;11.40;99.90;;;;;;5036104;28;20041;-59
2023/04/15 09:46:42;;;;;;;9.95;3.63;;;11.30;99.90;;;;;;5036504;28;20038;-60
2023/04/15 09:49:12;;;;;;;5.88;3.50;;;11.20;99.90;;;;;;5015976;28;20099;-60
2023/04/15 09:51:38;;;;;;;6.70;3.60;;;11.10;99.90;;;;;;5017003;28;20041;-60
2023/04/15 09:54:04;;;;;;;5.97;3.58;;;11.00;99.90;;;;;;5017313;28;20048;-59
2023/04/15 09:56:40;;;;;;;5.07;2.85;;;11.00;99.90;;;;;;5029816;28;20030;-59
2023/04/15 09:59:06;;;;;;;;;;;11.00;99.90;;;;;;5011601;28;20061;-60
2023/04/15 10:01:32;;;;;;;6.10;3.27;;;10.90;99.90;;;;;;5015009;28;19922;-59
2023/04/15 10:04:01;;;;;;;5.40;2.75;;;10.90;99.90;;;;;;5031562;28;20296;-59
2023/04/15 10:06:28;;;;;;;3.55;2.10;;;10.80;99.90;;;;;;5016393;28;20117;-59
2023/04/15 10:08:55;;;;;;;5.68;2.30;;;10.80;99.90;;;;;;5030533;28;20034;-59
2023/04/15 10:11:22;;;;;;;4.20;2.33;;;10.80;99.90;;;;;;5034961;28;20499;-59
2023/04/15 10:13:49;;;;;;;5.03;2.50;;;10.80;99.90;;;;;;5031594;28;20045;-60
2023/04/15 10:16:18;;;;;;;4.65;2.25;;;10.80;99.90;;;;;;5017782;28;20048;-61
2023/04/15 10:18:53;;;;;;;4.78;2.70;;;10.80;99.90;;;;;;5016149;28;20033;-61
2023/04/15 10:21:21;;;;;;;4.18;2.80;;;10.80;99.90;;;;;;5014171;28;20048;-60
2023/04/15 10:23:47;;;;;;;5.65;3.13;;;10.80;99.90;;;;;;5016153;28;20037;-60
2023/04/15 10:26:16;;;;;;;4.45;2.90;;;10.80;99.90;;;;;;5014381;28;20064;-59
2023/04/15 10:28:42;;;;;;;6.32;2.72;;;10.80;99.90;;;;;;5032774;28;20142;-59
2023/04/15 10:31:12;;;;;;;5.00;2.60;;;10.70;99.90;;;;;;5015181;28;20061;-58
2023/04/15 10:33:39;;;;;;;6.88;2.90;;;10.80;99.90;;;;;;5015745;28;20038;-60
2023/04/15 10:36:06;;;;;;;4.20;2.40;;;10.80;99.90;;;;;;5032352;28;20113;-59
2023/04/15 10:38:34;;;;;;;5.82;1.95;;;10.90;99.90;;;;;;5014689;28;20160;-60
2023/04/15 10:41:30;;;;;;;4.65;2.33;;;11.10;99.90;;;;;;5032863;28;20080;-59
2023/04/15 10:43:59;;;;;;;4.43;2.70;;;11.40;99.90;;;;;;5027803;28;20045;-59
2023/04/15 10:46:38;;;;;;;4.97;2.13;;;11.50;99.90;;;;;;5029969;28;20046;-60
2023/04/15 10:49:09;;;;;;;6.88;2.20;;;11.70;99.90;;;;;;5035126;28;20091;-60
2023/04/15 10:51:41;;;;;;;3.28;1.77;;;12.00;99.90;;;;;;5034504;28;20041;-57
2023/04/15 10:54:25;;;;;;;4.00;2.00;;;12.20;99.90;;;;;;5033582;28;20075;-59
2023/04/15 10:57:01;;;;;;;3.17;1.73;;;12.40;99.90;;;;;;5012099;28;20093;-60
2023/04/15 11:00:10;;;;;;;5.38;1.92;;;12.50;99.90;;;;;;5028926;28;20363;-60
2023/04/15 11:02:47;;;;;;;6.05;2.10;;;12.50;99.90;;;;;;5033432;28;20493;-58
2023/04/15 11:05:15;;;;;;;4.13;1.80;;;12.40;99.90;;;;;;5031995;28;20087;-59
2023/04/15 11:07:45;;;;;;;3.38;1.60;;;12.30;99.90;;;;;;5029605;28;20425;-59
2023/04/15 11:10:17;;;;;;;2.10;1.30;;;12.30;99.90;;;;;;5033561;28;20060;-60
2023/04/15 11:12:49;;;;;;;2.38;1.15;;;12.20;99.90;;;;;;5035654;28;20069;-59
2023/04/15 11:15:36;;;;;;;4.10;1.20;;;12.20;99.90;;;;;;5032278;28;20042;-58
2023/04/15 11:18:14;;;;;;;3.75;1.40;;;11.70;99.90;;;;;;5032740;28;20048;-59
2023/04/15 11:20:41;;;;;;;3.47;1.38;;;12.00;99.90;;;;;;5033774;28;20068;-59
2023/04/15 11:23:08;;;;;;;3.97;1.17;;;12.00;99.90;;;;;;5036416;28;20107;-59
2023/04/15 11:25:36;;;;;;;3.30;1.17;;;12.10;99.90;;;;;;5011462;28;20045;-59
2023/04/15 11:28:02;;;;;;;3.95;1.27;;;12.10;99.90;;;;;;5034897;28;20069;-59
2023/04/15 11:30:31;;;;;;;2.30;1.45;;;12.20;99.90;;;;;;5032402;28;20053;-59
2023/04/15 11:33:02;;;;;;;4.45;1.13;;;12.20;99.90;;;;;;5036282;28;20493;-59
2023/04/15 11:35:28;;;;;;;2.67;1.30;;;12.20;99.90;;;;;;5010533;28;20038;-59
2023/04/15 11:37:54;;;;;;;3.30;1.35;;;12.10;99.90;;;;;;5033700;28;20033;-59
2023/04/15 11:40:28;;;;;;;2.25;1.40;;;12.10;99.90;;;;;;5038637;28;20040;-58
2023/04/15 11:43:04;;;;;;;2.75;1.35;;;12.10;99.90;;;;;;5036943;28;20489;-58
2023/04/15 11:45:30;;;;;;;3.65;1.33;;;12.00;99.90;;;;;;5042154;28;20037;-58
2023/04/15 11:48:05;;;;;;;3.38;1.48;;;11.90;99.90;;;;;;5037457;28;20524;-59
2023/04/15 11:50:31;;;;;;;4.18;1.63;;;11.80;99.90;;;;;;5043455;28;20076;-58
2023/04/15 11:53:02;;;;;;;3.05;1.65;;;11.80;99.90;;;;;;5037707;28;20095;-58
2023/04/15 11:55:28;;;;;;;2.28;1.52;;;11.70;99.90;;;;;;5037294;28;20041;-58
2023/04/15 11:58:15;;;;;;;3.05;1.73;;;11.70;99.90;;;;;;5038645;28;20500;-59
2023/04/15 12:00:48;;;;;;;2.83;1.50;;;11.60;99.90;;;;;;5034691;28;20448;-58
2023/04/15 12:03:44;;;;;;;3.13;1.17;;;11.50;99.90;;;;;;5035575;28;20158;-59
2023/04/15 12:06:19;;;;;;;2.38;1.38;;;11.40;99.90;;;;;;5032444;28;20477;-59
2023/04/15 12:08:54;;;;;;;5.13;1.55;;;11.30;99.90;;;;;;5032546;28;20041;-59
2023/04/15 12:11:26;;;;;;;3.97;1.35;;;11.20;99.90;;;;;;5033822;28;20121;-59
2023/04/15 12:14:06;;;;;;;3.80;1.50;;;11.20;99.90;;;;;;5014627;28;20041;-60
2023/04/15 12:16:38;;;;;;;4.18;1.77;;;11.20;99.90;;;;;;5038817;28;20049;-59
2023/04/15 12:19:08;;;;;;;5.78;1.65;;;11.20;99.90;;;;;;5035720;28;20046;-59
2023/04/15 12:21:37;;;;;;;3.80;1.92;;;11.20;99.90;;;;;;5035737;28;20065;-61
2023/04/15 12:24:05;;;;;;;6.00;1.48;;;11.20;99.90;;;;;;5037794;28;20045;-59
2023/04/15 12:26:32;;;;;;;4.93;1.90;;;11.20;99.90;;;;;;5032861;28;20037;-60
2023/04/15 12:29:02;;;;;;;3.45;1.70;;;11.20;99.90;;;;;;5018706;28;20045;-59
2023/04/15 12:31:28;;;;;;;4.47;1.45;;;11.20;99.90;;;;;;5036401;28;20052;-60
2023/04/15 12:33:59;;;;;;;3.67;1.80;;;11.20;99.90;;;;;;5037460;28;20038;-60
2023/04/15 12:36:25;;;;;;;4.70;1.73;;;11.20;99.90;;;;;;5006521;28;20096;-60
2023/04/15 12:38:51;;;;;;;3.88;1.50;;;11.20;99.90;;;;;;5031606;28;20064;-58
2023/04/15 12:41:17;;;;;;;3.85;1.58;;;11.20;99.90;;;;;;5035342;28;20045;-58
2023/04/15 12:43:46;;;;;;;5.50;1.90;;;11.20;99.90;;;;;;5029742;28;20051;-60
2023/04/15 12:46:12;;;;;;;3.00;1.70;;;11.20;99.90;;;;;;5028782;28;20065;-59